sensor_id;sensor_type;location;lat;lon;timestamp;pressure;altitude;pressure_sealevel;temperature;humidity
6030;BME280;3043;42.682;23.376;2023-04-01T00:00:04;94074.84;;;11.04;100.00
6030;BME280;3043;42.682;23.376;2023-04-01T00:02:30;94078.94;;;10.88;100.00
6030;BME280;3043;42.682;23.376;2023-04-01T00:04:56;94078.13;;;10.88;100.00
6030;BME280;3043;42.682;23.376;2023-04-01T00:07:21;94080.84;;;10.85;100.00
6030;BME280;3043;42.682;23.376;2023-04-01T00:09:47;94082.94;;;10.75;100.00
6030;BME280;3043;42.682;23.376;2023-04-01T00:12:12;94079.69;;;10.70;100.00
6030;BME280;3043;42.682;23.376;2023-04-01T00:14:38;94079.19;;;10.60;100.00
6030;BME280;3043;42.682;23.376;2023-04-01T00:17:04;94081.84;;;10.59;100.00
6030;BME280;3043;42.682;23.376;2023-04-01T00:19:30;94097.78;;;10.48;100.00
6030;BME280;3043;42.682;23.376;2023-04-01T00:21:57;94089.19;;;10.69;100.00
6030;BME280;3043;42.682;23.376;2023-04-01T00:24:23;94084.97;;;10.45;100.00
6030;BME280;3043;42.682;23.376;2023-04-01T00:26:48;94084.75;;;10.73;100.00
6030;BME280;3043;42.682;23.376;2023-04-01T00:29:14;94081.47;;;10.68;100.00
6030;BME280;3043;42.682;23.376;2023-04-01T00:31:39;94084.63;;;10.76;100.00
6030;BME280;3043;42.682;23.376;2023-04-01T00:34:05;94085.72;;;10.92;100.00
6030;BME280;3043;42.682;23.376;2023-04-01T00:36:30;94076.28;;;10.90;100.00
6030;BME280;3043;42.682;23.376;2023-04-01T00:38:57;94080.41;;;10.95;100.00
6030;BME280;3043;42.682;23.376;2023-04-01T00:41:24;94070.06;;;10.95;100.00
6030;BME280;3043;42.682;23.376;2023-04-01T00:43:51;94066.28;;;11.02;100.00
6030;BME280;3043;42.682;23.376;2023-04-01T00:46:18;94061.56;;;10.92;100.00
6030;BME280;3043;42.682;23.376;2023-04-01T00:48:53;94049.09;;;11.01;100.00
6030;BME280;3043;42.682;23.376;2023-04-01T00:51:26;94052.56;;;11.00;100.00
6030;BME280;3043;42.682;23.376;2023-04-01T00:53:55;94044.59;;;10.85;100.00
6030;BME280;3043;42.682;23.376;2023-04-01T00:56:24;94031.72;;;10.83;100.00
6030;BME280;3043;42.682;23.376;2023-04-01T00:58:56;94042.59;;;10.91;100.00
6030;BME280;3043;42.682;23.376;2023-04-01T01:01:24;94032.34;;;10.88;100.00
6030;BME280;3043;42.682;23.376;2023-04-01T01:03:50;94028.38;;;11.01;100.00
6030;BME280;3043;42.682;23.376;2023-04-01T01:09:07;94020.28;;;11.09;100.00
6030;BME280;3043;42.682;23.376;2023-04-01T01:25:35;93996.25;;;10.85;100.00
6030;BME280;3043;42.682;23.376;2023-04-01T01:31:10;93994.44;;;10.87;100.00
6030;BME280;3043;42.682;23.376;2023-04-01T01:34:14;93987.34;;;10.92;100.00
6030;BME280;3043;42.682;23.376;2023-04-01T01:36:48;93990.28;;;11.03;100.00
6030;BME280;3043;42.682;23.376;2023-04-01T01:39:16;93986.94;;;11.01;100.00
6030;BME280;3043;42.682;23.376;2023-04-01T01:41:43;93981.63;;;11.04;100.00
6030;BME280;3043;42.682;23.376;2023-04-01T01:44:12;93982.25;;;11.09;100.00
6030;BME280;3043;42.682;23.376;2023-04-01T01:46:40;93981.25;;;11.13;100.00
6030;BME280;3043;42.682;23.376;2023-04-01T01:49:10;93974.81;;;11.22;100.00
6030;BME280;3043;42.682;23.376;2023-04-01T01:51:36;93982.66;;;11.20;100.00
6030;BME280;3043;42.682;23.376;2023-04-01T01:54:02;93981.06;;;11.18;100.00
6030;BME280;3043;42.682;23.376;2023-04-01T01:56:29;93968.78;;;11.21;100.00
6030;BME280;3043;42.682;23.376;2023-04-01T01:58:59;93965.03;;;11.28;100.00
6030;BME280;3043;42.682;23.376;2023-04-01T02:01:29;93954.41;;;11.34;100.00
6030;BME280;3043;42.682;23.376;2023-04-01T02:03:56;93958.28;;;11.44;100.00
6030;BME280;3043;42.682;23.376;2023-04-01T02:06:25;93962.44;;;11.48;100.00
6030;BME280;3043;42.682;23.376;2023-04-01T02:08:57;93970.94;;;11.50;100.00
6030;BME280;3043;42.682;23.376;2023-04-01T02:11:33;93958.84;;;11.71;100.00
6030;BME280;3043;42.682;23.376;2023-04-01T02:14:13;93948.00;;;11.61;100.00
6030;BME280;3043;42.682;23.376;2023-04-01T02:19:12;93956.44;;;11.66;100.00
6030;BME280;3043;42.682;23.376;2023-04-01T02:21:39;93940.19;;;11.81;100.00
6030;BME280;3043;42.682;23.376;2023-04-01T02:24:08;93943.69;;;11.99;100.00
6030;BME280;3043;42.682;23.376;2023-04-01T02:26:35;93925.66;;;12.14;100.00
6030;BME280;3043;42.682;23.376;2023-04-01T02:29:01;93934.38;;;12.30;100.00
6030;BME280;3043;42.682;23.376;2023-04-01T02:31:29;93930.88;;;12.31;100.00
6030;BME280;3043;42.682;23.376;2023-04-01T02:33:56;93929.91;;;12.15;100.00
6030;BME280;3043;42.682;23.376;2023-04-01T02:36:22;93945.03;;;12.24;100.00
6030;BME280;3043;42.682;23.376;2023-04-01T02:38:47;93953.41;;;12.12;100.00
6030;BME280;3043;42.682;23.376;2023-04-01T02:41:14;93945.63;;;12.12;100.00
6030;BME280;3043;42.682;23.376;2023-04-01T02:43:40;93945.34;;;12.18;100.00
6030;BME280;3043;42.682;23.376;2023-04-01T02:46:06;93956.16;;;12.09;100.00
6030;BME280;3043;42.682;23.376;2023-04-01T02:48:31;93969.75;;;11.77;100.00
6030;BME280;3043;42.682;23.376;2023-04-01T02:50:56;93971.53;;;11.77;100.00
6030;BME280;3043;42.682;23.376;2023-04-01T02:53:22;93959.78;;;11.68;100.00
6030;BME280;3043;42.682;23.376;2023-04-01T02:55:47;93952.25;;;11.82;100.00
6030;BME280;3043;42.682;23.376;2023-04-01T02:58:16;93969.25;;;11.31;100.00
6030;BME280;3043;42.682;23.376;2023-04-01T03:00:41;93973.34;;;11.36;100.00
6030;BME280;3043;42.682;23.376;2023-04-01T03:03:07;93955.94;;;11.38;100.00
6030;BME280;3043;42.682;23.376;2023-04-01T03:05:32;93978.13;;;11.25;100.00
6030;BME280;3043;42.682;23.376;2023-04-01T03:07:58;93981.31;;;11.12;100.00
6030;BME280;3043;42.682;23.376;2023-04-01T03:10:23;93976.06;;;11.13;100.00
6030;BME280;3043;42.682;23.376;2023-04-01T03:12:49;93973.22;;;11.19;100.00
6030;BME280;3043;42.682;23.376;2023-04-01T03:15:14;93979.16;;;11.21;100.00
6030;BME280;3043;42.682;23.376;2023-04-01T03:17:41;93971.44;;;11.20;100.00
6030;BME280;3043;42.682;23.376;2023-04-01T03:20:09;93972.06;;;10.86;100.00
6030;BME280;3043;42.682;23.376;2023-04-01T03:22:36;93976.50;;;10.82;100.00
6030;BME280;3043;42.682;23.376;2023-04-01T03:25:02;93987.59;;;10.86;100.00
6030;BME280;3043;42.682;23.376;2023-04-01T03:27:28;93989.00;;;10.93;100.00
6030;BME280;3043;42.682;23.376;2023-04-01T03:29:53;93998.47;;;11.14;100.00
6030;BME280;3043;42.682;23.376;2023-04-01T03:32:18;93998.19;;;11.00;100.00
6030;BME280;3043;42.682;23.376;2023-04-01T03:34:44;94000.84;;;11.19;100.00
6030;BME280;3043;42.682;23.376;2023-04-01T03:37:10;94001.56;;;11.22;100.00
6030;BME280;3043;42.682;23.376;2023-04-01T03:39:35;93997.41;;;11.18;100.00
6030;BME280;3043;42.682;23.376;2023-04-01T03:42:01;93988.22;;;11.11;100.00
6030;BME280;3043;42.682;23.376;2023-04-01T03:44:30;93978.13;;;11.05;100.00
6030;BME280;3043;42.682;23.376;2023-04-01T03:46:56;93972.69;;;11.11;100.00
6030;BME280;3043;42.682;23.376;2023-04-01T03:49:21;93952.59;;;11.36;100.00
6030;BME280;3043;42.682;23.376;2023-04-01T03:51:46;93952.41;;;11.41;100.00
6030;BME280;3043;42.682;23.376;2023-04-01T03:54:12;93943.44;;;11.48;100.00
6030;BME280;3043;42.682;23.376;2023-04-01T03:56:37;93925.75;;;11.57;100.00
6030;BME280;3043;42.682;23.376;2023-04-01T03:59:05;93913.41;;;11.62;100.00
6030;BME280;3043;42.682;23.376;2023-04-01T04:01:31;93912.41;;;11.66;100.00
6030;BME280;3043;42.682;23.376;2023-04-01T04:03:57;93889.47;;;11.57;100.00
6030;BME280;3043;42.682;23.376;2023-04-01T04:06:24;93886.09;;;11.55;100.00
6030;BME280;3043;42.682;23.376;2023-04-01T04:08:49;93899.97;;;11.54;100.00
6030;BME280;3043;42.682;23.376;2023-04-01T04:11:15;93888.22;;;11.27;100.00
6030;BME280;3043;42.682;23.376;2023-04-01T04:13:41;93866.56;;;10.91;100.00
6030;BME280;3043;42.682;23.376;2023-04-01T04:16:08;93872.91;;;10.84;100.00
6030;BME280;3043;42.682;23.376;2023-04-01T04:18:35;93879.34;;;11.14;100.00
6030;BME280;3043;42.682;23.376;2023-04-01T04:21:00;93858.63;;;11.14;100.00
6030;BME280;3043;42.682;23.376;2023-04-01T04:23:26;93857.09;;;11.10;100.00
6030;BME280;3043;42.682;23.376;2023-04-01T04:25:59;93855.94;;;10.97;100.00
6030;BME280;3043;42.682;23.376;2023-04-01T04:28:26;93847.50;;;10.73;100.00
6030;BME280;3043;42.682;23.376;2023-04-01T04:30:52;93844.19;;;10.50;100.00
6030;BME280;3043;42.682;23.376;2023-04-01T04:33:18;93844.16;;;10.31;100.00
6030;BME280;3043;42.682;23.376;2023-04-01T04:35:44;93845.75;;;10.34;100.00
6030;BME280;3043;42.682;23.376;2023-04-01T04:38:09;93843.25;;;10.52;100.00
6030;BME280;3043;42.682;23.376;2023-04-01T04:40:39;93821.50;;;10.56;100.00
6030;BME280;3043;42.682;23.376;2023-04-01T04:43:04;93825.47;;;10.45;100.00
6030;BME280;3043;42.682;23.376;2023-04-01T04:45:30;93824.03;;;10.38;100.00
6030;BME280;3043;42.682;23.376;2023-04-01T04:47:56;93826.25;;;10.27;100.00
6030;BME280;3043;42.682;23.376;2023-04-01T04:50:21;93808.66;;;10.35;100.00
6030;BME280;3043;42.682;23.376;2023-04-01T04:52:47;93806.19;;;10.52;100.00
6030;BME280;3043;42.682;23.376;2023-04-01T04:55:12;93803.31;;;10.78;100.00
6030;BME280;3043;42.682;23.376;2023-04-01T04:57:38;93794.34;;;10.85;100.00
6030;BME280;3043;42.682;23.376;2023-04-01T05:00:04;93795.63;;;10.95;100.00
6030;BME280;3043;42.682;23.376;2023-04-01T05:02:29;93794.06;;;10.91;100.00
6030;BME280;3043;42.682;23.376;2023-04-01T05:04:55;93811.09;;;10.97;100.00
6030;BME280;3043;42.682;23.376;2023-04-01T05:07:21;93799.25;;;10.91;100.00
6030;BME280;3043;42.682;23.376;2023-04-01T05:09:46;93799.38;;;10.88;100.00
6030;BME280;3043;42.682;23.376;2023-04-01T05:12:12;93799.13;;;10.94;100.00
6030;BME280;3043;42.682;23.376;2023-04-01T05:14:38;93788.84;;;11.11;100.00
6030;BME280;3043;42.682;23.376;2023-04-01T05:17:04;93782.97;;;11.26;100.00
6030;BME280;3043;42.682;23.376;2023-04-01T05:19:29;93788.91;;;11.47;100.00
6030;BME280;3043;42.682;23.376;2023-04-01T05:21:55;93793.09;;;11.68;100.00
6030;BME280;3043;42.682;23.376;2023-04-01T05:24:20;93779.19;;;11.87;100.00
6030;BME280;3043;42.682;23.376;2023-04-01T05:26:46;93765.78;;;12.13;100.00
6030;BME280;3043;42.682;23.376;2023-04-01T05:29:11;93768.50;;;12.27;100.00
6030;BME280;3043;42.682;23.376;2023-04-01T05:31:36;93767.91;;;12.39;100.00
6030;BME280;3043;42.682;23.376;2023-04-01T05:34:02;93775.59;;;12.41;100.00
6030;BME280;3043;42.682;23.376;2023-04-01T05:36:27;93770.09;;;12.80;100.00
6030;BME280;3043;42.682;23.376;2023-04-01T05:38:55;93765.59;;;13.16;100.00
6030;BME280;3043;42.682;23.376;2023-04-01T05:41:21;93771.78;;;13.13;100.00
6030;BME280;3043;42.682;23.376;2023-04-01T05:43:46;93773.75;;;13.41;100.00
6030;BME280;3043;42.682;23.376;2023-04-01T05:46:12;93772.81;;;13.42;100.00
6030;BME280;3043;42.682;23.376;2023-04-01T05:48:38;93771.13;;;13.41;100.00
6030;BME280;3043;42.682;23.376;2023-04-01T05:51:04;93776.16;;;13.28;100.00
6030;BME280;3043;42.682;23.376;2023-04-01T05:53:30;93779.03;;;13.39;100.00
6030;BME280;3043;42.682;23.376;2023-04-01T05:55:55;93764.41;;;13.68;100.00
6030;BME280;3043;42.682;23.376;2023-04-01T05:58:21;93753.53;;;14.36;100.00
6030;BME280;3043;42.682;23.376;2023-04-01T06:00:46;93755.25;;;14.65;100.00
6030;BME280;3043;42.682;23.376;2023-04-01T06:03:12;93745.16;;;15.57;100.00
6030;BME280;3043;42.682;23.376;2023-04-01T06:05:40;93751.66;;;16.57;95.63
6030;BME280;3043;42.682;23.376;2023-04-01T06:08:17;93756.28;;;17.77;88.51
6030;BME280;3043;42.682;23.376;2023-04-01T06:13:42;93764.63;;;20.51;66.03
6030;BME280;3043;42.682;23.376;2023-04-01T06:28:00;93758.91;;;17.77;78.42
6030;BME280;3043;42.682;23.376;2023-04-01T06:30:37;93751.78;;;18.03;77.33
6030;BME280;3043;42.682;23.376;2023-04-01T06:54:10;93729.09;;;16.17;97.54
6030;BME280;3043;42.682;23.376;2023-04-01T06:56:41;93715.16;;;15.91;100.00
6030;BME280;3043;42.682;23.376;2023-04-01T07:01:41;93693.31;;;15.79;100.00
6030;BME280;3043;42.682;23.376;2023-04-01T07:04:33;93690.66;;;15.67;100.00
6030;BME280;3043;42.682;23.376;2023-04-01T07:07:03;93697.81;;;15.37;100.00
6030;BME280;3043;42.682;23.376;2023-04-01T07:09:36;93707.94;;;15.55;100.00
6030;BME280;3043;42.682;23.376;2023-04-01T07:12:11;93706.03;;;15.57;100.00
6030;BME280;3043;42.682;23.376;2023-04-01T07:14:41;93691.31;;;15.70;100.00
6030;BME280;3043;42.682;23.376;2023-04-01T07:17:21;93686.41;;;15.78;100.00
6030;BME280;3043;42.682;23.376;2023-04-01T07:20:16;93678.25;;;15.70;100.00
6030;BME280;3043;42.682;23.376;2023-04-01T07:22:51;93681.69;;;15.71;100.00
6030;BME280;3043;42.682;23.376;2023-04-01T07:25:43;93675.25;;;15.89;100.00
6030;BME280;3043;42.682;23.376;2023-04-01T07:28:15;93701.69;;;15.97;100.00
6030;BME280;3043;42.682;23.376;2023-04-01T07:30:52;93703.78;;;15.65;100.00
6030;BME280;3043;42.682;23.376;2023-04-01T07:33:28;93690.56;;;15.68;100.00
6030;BME280;3043;42.682;23.376;2023-04-01T07:36:08;93673.06;;;16.22;100.00
6030;BME280;3043;42.682;23.376;2023-04-01T07:38:56;93686.44;;;16.43;100.00
6030;BME280;3043;42.682;23.376;2023-04-01T07:41:32;93690.66;;;16.70;100.00
6030;BME280;3043;42.682;23.376;2023-04-01T07:45:01;93685.81;;;16.89;100.00
6030;BME280;3043;42.682;23.376;2023-04-01T07:50:05;93673.22;;;17.19;93.26
6030;BME280;3043;42.682;23.376;2023-04-01T07:52:48;93672.38;;;17.31;90.30
6030;BME280;3043;42.682;23.376;2023-04-01T07:55:26;93676.00;;;16.93;91.26
6030;BME280;3043;42.682;23.376;2023-04-01T08:01:04;93673.47;;;17.04;91.68
6030;BME280;3043;42.682;23.376;2023-04-01T08:06:19;93672.13;;;16.86;90.57
6030;BME280;3043;42.682;23.376;2023-04-01T08:25:52;93628.00;;;17.30;91.16
6030;BME280;3043;42.682;23.376;2023-04-01T08:28:41;93624.16;;;17.59;90.74
6030;BME280;3043;42.682;23.376;2023-04-01T08:31:18;93625.38;;;17.66;88.62
6030;BME280;3043;42.682;23.376;2023-04-01T08:33:49;93624.69;;;17.75;89.14
6030;BME280;3043;42.682;23.376;2023-04-01T08:39:05;93596.69;;;17.99;88.03
6030;BME280;3043;42.682;23.376;2023-04-01T08:44:36;93577.28;;;18.47;80.74
6030;BME280;3043;42.682;23.376;2023-04-01T08:57:42;93559.63;;;19.04;73.08
6030;BME280;3043;42.682;23.376;2023-04-01T09:00:56;93567.91;;;19.20;71.93
6030;BME280;3043;42.682;23.376;2023-04-01T09:03:26;93577.69;;;19.40;70.85
6030;BME280;3043;42.682;23.376;2023-04-01T09:06:28;93578.50;;;19.84;67.07
6030;BME280;3043;42.682;23.376;2023-04-01T09:15:03;93564.44;;;20.26;61.62
6030;BME280;3043;42.682;23.376;2023-04-01T09:20:52;93570.78;;;19.92;60.29
6030;BME280;3043;42.682;23.376;2023-04-01T09:32:14;93554.38;;;18.93;65.68
6030;BME280;3043;42.682;23.376;2023-04-01T09:35:06;93555.38;;;18.59;65.53
6030;BME280;3043;42.682;23.376;2023-04-01T09:37:35;93547.47;;;18.26;65.59
6030;BME280;3043;42.682;23.376;2023-04-01T09:40:23;93533.84;;;17.88;68.98
6030;BME280;3043;42.682;23.376;2023-04-01T09:43:26;93538.00;;;17.45;70.85
6030;BME280;3043;42.682;23.376;2023-04-01T10:00:07;93493.63;;;17.09;83.35
6030;BME280;3043;42.682;23.376;2023-04-01T10:14:03;93492.88;;;17.65;82.61
6030;BME280;3043;42.682;23.376;2023-04-01T10:19:43;93484.41;;;17.27;83.56
6030;BME280;3043;42.682;23.376;2023-04-01T10:25:05;93474.28;;;17.22;86.38
6030;BME280;3043;42.682;23.376;2023-04-01T11:15:06;93410.41;;;17.03;79.20
6030;BME280;3043;42.682;23.376;2023-04-01T11:26:02;93420.88;;;17.14;79.21
6030;BME280;3043;42.682;23.376;2023-04-01T11:31:41;93437.31;;;17.16;79.31
6030;BME280;3043;42.682;23.376;2023-04-01T11:40:12;93492.94;;;16.71;80.92
6030;BME280;3043;42.682;23.376;2023-04-01T11:56:43;93633.00;;;14.06;100.00
6030;BME280;3043;42.682;23.376;2023-04-01T12:04:57;93652.13;;;12.04;100.00
6030;BME280;3043;42.682;23.376;2023-04-01T12:10:01;93644.44;;;11.69;100.00
6030;BME280;3043;42.682;23.376;2023-04-01T12:18:38;93599.41;;;11.54;100.00
6030;BME280;3043;42.682;23.376;2023-04-01T12:21:25;93603.84;;;11.69;100.00
6030;BME280;3043;42.682;23.376;2023-04-01T12:36:18;93624.31;;;13.03;100.00
6030;BME280;3043;42.682;23.376;2023-04-01T12:39:07;93623.13;;;12.93;100.00
6030;BME280;3043;42.682;23.376;2023-04-01T12:41:53;93634.38;;;13.09;100.00
6030;BME280;3043;42.682;23.376;2023-04-01T12:44:47;93631.94;;;13.06;100.00
6030;BME280;3043;42.682;23.376;2023-04-01T12:50:16;93634.44;;;12.61;100.00
6030;BME280;3043;42.682;23.376;2023-04-01T13:03:52;93616.19;;;12.29;100.00
6030;BME280;3043;42.682;23.376;2023-04-01T13:17:33;93551.25;;;12.78;100.00
6030;BME280;3043;42.682;23.376;2023-04-01T13:23:34;93546.38;;;12.87;100.00
6030;BME280;3043;42.682;23.376;2023-04-01T13:25:47;93561.47;;;12.81;100.00
6030;BME280;3043;42.682;23.376;2023-04-01T13:28:21;93533.72;;;12.97;100.00
6030;BME280;3043;42.682;23.376;2023-04-01T13:44:33;93518.00;;;14.29;100.00
6030;BME280;3043;42.682;23.376;2023-04-01T14:01:08;93510.47;;;13.96;100.00
6030;BME280;3043;42.682;23.376;2023-04-01T14:06:31;93502.19;;;14.04;100.00
6030;BME280;3043;42.682;23.376;2023-04-01T14:12:10;93487.69;;;13.86;100.00
6030;BME280;3043;42.682;23.376;2023-04-01T14:34:00;93436.78;;;13.12;100.00
6030;BME280;3043;42.682;23.376;2023-04-01T14:40:10;93430.28;;;13.05;100.00
6030;BME280;3043;42.682;23.376;2023-04-01T14:48:37;93445.38;;;13.70;100.00
6030;BME280;3043;42.682;23.376;2023-04-01T14:54:06;93448.59;;;14.01;100.00
6030;BME280;3043;42.682;23.376;2023-04-01T14:56:35;93440.22;;;14.10;100.00
6030;BME280;3043;42.682;23.376;2023-04-01T14:59:01;93438.06;;;14.17;100.00
6030;BME280;3043;42.682;23.376;2023-04-01T15:01:44;93433.06;;;14.00;100.00
6030;BME280;3043;42.682;23.376;2023-04-01T15:07:00;93455.75;;;13.84;100.00
6030;BME280;3043;42.682;23.376;2023-04-01T15:10:31;93474.13;;;13.81;100.00
6030;BME280;3043;42.682;23.376;2023-04-01T15:13:14;93464.84;;;13.63;100.00
6030;BME280;3043;42.682;23.376;2023-04-01T15:23:46;93459.13;;;13.58;100.00
6030;BME280;3043;42.682;23.376;2023-04-01T15:29:01;93469.13;;;13.64;100.00
6030;BME280;3043;42.682;23.376;2023-04-01T15:34:37;93461.97;;;13.81;100.00
6030;BME280;3043;42.682;23.376;2023-04-01T15:40:22;93466.91;;;13.86;100.00
6030;BME280;3043;42.682;23.376;2023-04-01T15:48:14;93474.88;;;13.83;100.00
6030;BME280;3043;42.682;23.376;2023-04-01T15:50:47;93457.81;;;13.93;100.00
6030;BME280;3043;42.682;23.376;2023-04-01T16:01:27;93677.28;;;11.51;100.00
6030;BME280;3043;42.682;23.376;2023-04-01T16:04:41;93714.75;;;10.90;100.00
6030;BME280;3043;42.682;23.376;2023-04-01T16:13:03;93685.56;;;9.71;100.00
6030;BME280;3043;42.682;23.376;2023-04-01T16:21:37;93687.25;;;8.88;100.00
6030;BME280;3043;42.682;23.376;2023-04-01T16:26:55;93699.28;;;8.66;100.00
6030;BME280;3043;42.682;23.376;2023-04-01T16:29:38;93696.81;;;8.63;100.00
6030;BME280;3043;42.682;23.376;2023-04-01T16:32:30;93709.41;;;8.71;100.00
6030;BME280;3043;42.682;23.376;2023-04-01T16:35:20;93698.72;;;8.58;100.00
6030;BME280;3043;42.682;23.376;2023-04-01T16:41:17;93724.84;;;8.49;100.00
6030;BME280;3043;42.682;23.376;2023-04-01T16:43:48;93722.09;;;8.54;100.00
6030;BME280;3043;42.682;23.376;2023-04-01T16:46:38;93727.53;;;8.46;100.00
6030;BME280;3043;42.682;23.376;2023-04-01T16:54:51;93738.75;;;8.45;100.00
6030;BME280;3043;42.682;23.376;2023-04-01T16:57:23;93733.59;;;8.45;100.00
6030;BME280;3043;42.682;23.376;2023-04-01T17:02:49;93721.63;;;8.44;100.00
6030;BME280;3043;42.682;23.376;2023-04-01T17:05:16;93737.19;;;8.41;100.00
6030;BME280;3043;42.682;23.376;2023-04-01T17:08:07;93745.22;;;8.34;100.00
6030;BME280;3043;42.682;23.376;2023-04-01T17:18:28;93753.53;;;8.40;100.00
6030;BME280;3043;42.682;23.376;2023-04-01T17:21:15;93756.00;;;8.43;100.00
6030;BME280;3043;42.682;23.376;2023-04-01T17:23:53;93759.38;;;8.45;100.00
6030;BME280;3043;42.682;23.376;2023-04-01T17:26:41;93750.97;;;8.40;100.00
6030;BME280;3043;42.682;23.376;2023-04-01T17:42:40;93776.75;;;8.40;100.00
6030;BME280;3043;42.682;23.376;2023-04-01T17:47:59;93799.19;;;8.38;100.00
6030;BME280;3043;42.682;23.376;2023-04-01T17:50:47;93809.06;;;8.50;100.00
6030;BME280;3043;42.682;23.376;2023-04-01T17:56:10;93819.69;;;8.41;100.00
6030;BME280;3043;42.682;23.376;2023-04-01T18:04:54;93847.03;;;8.45;100.00
6030;BME280;3043;42.682;23.376;2023-04-01T18:15:39;93852.63;;;8.33;100.00
6030;BME280;3043;42.682;23.376;2023-04-01T18:18:42;93861.47;;;8.26;100.00
6030;BME280;3043;42.682;23.376;2023-04-01T18:24:15;93875.34;;;8.22;100.00
6030;BME280;3043;42.682;23.376;2023-04-01T18:26:46;93856.78;;;8.11;100.00
6030;BME280;3043;42.682;23.376;2023-04-01T18:31:51;93868.31;;;8.27;100.00
6030;BME280;3043;42.682;23.376;2023-04-01T18:34:57;93881.09;;;8.30;100.00
6030;BME280;3043;42.682;23.376;2023-04-01T18:45:51;93882.09;;;8.26;100.00
6030;BME280;3043;42.682;23.376;2023-04-01T18:51:39;93881.56;;;8.41;100.00
6030;BME280;3043;42.682;23.376;2023-04-01T18:54:23;93891.25;;;8.35;100.00
6030;BME280;3043;42.682;23.376;2023-04-01T18:57:01;93893.56;;;8.42;100.00
6030;BME280;3043;42.682;23.376;2023-04-01T18:59:46;93901.56;;;8.59;100.00
6030;BME280;3043;42.682;23.376;2023-04-01T19:04:52;93903.78;;;8.70;100.00
6030;BME280;3043;42.682;23.376;2023-04-01T19:09:49;93909.91;;;8.90;100.00
6030;BME280;3043;42.682;23.376;2023-04-01T19:15:02;93908.72;;;9.00;100.00
6030;BME280;3043;42.682;23.376;2023-04-01T19:20:47;93929.03;;;9.10;100.00
6030;BME280;3043;42.682;23.376;2023-04-01T19:26:05;93923.41;;;9.22;100.00
6030;BME280;3043;42.682;23.376;2023-04-01T19:28:50;93938.22;;;9.17;100.00
6030;BME280;3043;42.682;23.376;2023-04-01T19:31:36;93935.75;;;9.14;100.00
6030;BME280;3043;42.682;23.376;2023-04-01T19:37:09;93958.44;;;9.29;100.00
6030;BME280;3043;42.682;23.376;2023-04-01T19:47:58;93965.03;;;9.37;100.00
6030;BME280;3043;42.682;23.376;2023-04-01T19:50:40;93968.06;;;9.24;100.00
6030;BME280;3043;42.682;23.376;2023-04-01T19:58:28;93979.25;;;9.24;100.00
6030;BME280;3043;42.682;23.376;2023-04-01T20:00:58;93979.03;;;9.30;100.00
6030;BME280;3043;42.682;23.376;2023-04-01T20:11:26;93987.38;;;9.14;100.00
6030;BME280;3043;42.682;23.376;2023-04-01T20:14:17;93984.25;;;9.29;100.00
6030;BME280;3043;42.682;23.376;2023-04-01T20:17:15;93979.88;;;9.31;100.00
6030;BME280;3043;42.682;23.376;2023-04-01T20:19:41;93988.19;;;9.39;100.00
6030;BME280;3043;42.682;23.376;2023-04-01T20:22:29;93978.16;;;9.31;100.00
6030;BME280;3043;42.682;23.376;2023-04-01T20:25:05;93976.34;;;9.33;100.00
6030;BME280;3043;42.682;23.376;2023-04-01T20:27:38;93986.69;;;9.56;100.00
6030;BME280;3043;42.682;23.376;2023-04-01T20:47:00;94000.34;;;9.60;100.00
6030;BME280;3043;42.682;23.376;2023-04-01T21:00:24;94003.16;;;9.54;100.00
6030;BME280;3043;42.682;23.376;2023-04-01T21:03:12;94008.47;;;9.49;100.00
6030;BME280;3043;42.682;23.376;2023-04-01T21:16:39;94028.63;;;9.63;100.00
6030;BME280;3043;42.682;23.376;2023-04-01T21:21:55;94040.88;;;9.58;100.00
6030;BME280;3043;42.682;23.376;2023-04-01T21:24:29;94037.72;;;9.73;100.00
6030;BME280;3043;42.682;23.376;2023-04-01T21:30:21;94031.22;;;9.86;100.00
6030;BME280;3043;42.682;23.376;2023-04-01T21:35:41;94031.22;;;9.86;100.00
6030;BME280;3043;42.682;23.376;2023-04-01T21:40:44;94035.47;;;9.64;100.00
6030;BME280;3043;42.682;23.376;2023-04-01T22:02:56;94028.41;;;9.69;100.00
6030;BME280;3043;42.682;23.376;2023-04-01T22:13:20;94022.09;;;9.53;100.00
6030;BME280;3043;42.682;23.376;2023-04-01T22:16:11;94025.81;;;9.46;100.00
6030;BME280;3043;42.682;23.376;2023-04-01T22:18:45;94022.97;;;9.29;100.00
6030;BME280;3043;42.682;23.376;2023-04-01T22:27:07;94020.22;;;9.08;100.00
6030;BME280;3043;42.682;23.376;2023-04-01T22:33:21;94010.91;;;9.04;100.00
6030;BME280;3043;42.682;23.376;2023-04-01T22:35:27;94007.69;;;8.98;100.00
6030;BME280;3043;42.682;23.376;2023-04-01T22:38:02;94015.50;;;8.96;100.00
6030;BME280;3043;42.682;23.376;2023-04-01T22:40:41;94015.81;;;8.87;100.00
6030;BME280;3043;42.682;23.376;2023-04-01T22:43:34;94017.81;;;8.79;100.00
6030;BME280;3043;42.682;23.376;2023-04-01T22:49:08;94025.66;;;8.76;100.00
6030;BME280;3043;42.682;23.376;2023-04-01T22:52:03;94019.16;;;8.65;100.00
6030;BME280;3043;42.682;23.376;2023-04-01T22:54:37;94029.41;;;8.40;100.00
6030;BME280;3043;42.682;23.376;2023-04-01T22:57:09;94029.41;;;8.40;100.00
6030;BME280;3043;42.682;23.376;2023-04-01T22:59:44;94030.81;;;8.50;100.00
6030;BME280;3043;42.682;23.376;2023-04-01T23:02:14;94041.72;;;8.58;100.00
6030;BME280;3043;42.682;23.376;2023-04-01T23:04:43;94033.66;;;8.67;100.00
6030;BME280;3043;42.682;23.376;2023-04-01T23:10:42;94036.50;;;8.60;100.00
6030;BME280;3043;42.682;23.376;2023-04-01T23:13:16;94037.16;;;8.66;100.00
6030;BME280;3043;42.682;23.376;2023-04-01T23:15:45;94038.84;;;8.67;100.00
6030;BME280;3043;42.682;23.376;2023-04-01T23:18:27;94043.47;;;8.84;100.00
6030;BME280;3043;42.682;23.376;2023-04-01T23:29:04;94054.59;;;8.84;100.00
6030;BME280;3043;42.682;23.376;2023-04-01T23:31:42;94060.69;;;8.83;100.00
6030;BME280;3043;42.682;23.376;2023-04-01T23:36:58;94058.38;;;9.00;100.00
6030;BME280;3043;42.682;23.376;2023-04-01T23:41:55;94062.50;;;9.06;100.00
6030;BME280;3043;42.682;23.376;2023-04-01T23:44:24;94054.69;;;9.07;100.00
6030;BME280;3043;42.682;23.376;2023-04-01T23:46:51;94056.56;;;9.02;100.00